sensor_id;sensor_type;location;lat;lon;timestamp;P1;durP1;ratioP1;P2;durP2;ratioP2
76752;SDS011;65687;51.308;16.916;2023-01-23T00:02:09;28.40;;;13.20;;
76752;SDS011;65687;51.308;16.916;2023-01-23T00:07:11;25.50;;;13.50;;
76752;SDS011;65687;51.308;16.916;2023-01-23T00:12:12;27.60;;;12.70;;
76752;SDS011;65687;51.308;16.916;2023-01-23T00:17:14;37.10;;;15.20;;
76752;SDS011;65687;51.308;16.916;2023-01-23T00:22:15;29.10;;;15.40;;
76752;SDS011;65687;51.308;16.916;2023-01-23T00:27:17;30.70;;;13.70;;
76752;SDS011;65687;51.308;16.916;2023-01-23T00:32:19;33.10;;;14.00;;
76752;SDS011;65687;51.308;16.916;2023-01-23T00:37:21;32.50;;;15.30;;
76752;SDS011;65687;51.308;16.916;2023-01-23T00:42:22;30.90;;;15.30;;
76752;SDS011;65687;51.308;16.916;2023-01-23T00:47:24;26.60;;;11.20;;
76752;SDS011;65687;51.308;16.916;2023-01-23T00:52:25;25.10;;;12.40;;
76752;SDS011;65687;51.308;16.916;2023-01-23T00:57:27;33.70;;;15.10;;
76752;SDS011;65687;51.308;16.916;2023-01-23T01:02:30;32.60;;;16.10;;
76752;SDS011;65687;51.308;16.916;2023-01-23T01:07:32;30.60;;;14.40;;
76752;SDS011;65687;51.308;16.916;2023-01-23T01:12:33;31.00;;;13.80;;
76752;SDS011;65687;51.308;16.916;2023-01-23T01:17:35;36.70;;;16.40;;
76752;SDS011;65687;51.308;16.916;2023-01-23T01:22:36;35.10;;;15.00;;
76752;SDS011;65687;51.308;16.916;2023-01-23T01:27:38;32.20;;;14.10;;
76752;SDS011;65687;51.308;16.916;2023-01-23T01:32:40;32.30;;;14.70;;
76752;SDS011;65687;51.308;16.916;2023-01-23T01:37:42;32.70;;;15.30;;
76752;SDS011;65687;51.308;16.916;2023-01-23T01:42:49;34.40;;;16.40;;
76752;SDS011;65687;51.308;16.916;2023-01-23T01:47:52;30.00;;;12.90;;
76752;SDS011;65687;51.308;16.916;2023-01-23T01:52:54;30.60;;;13.60;;
76752;SDS011;65687;51.308;16.916;2023-01-23T01:57:55;27.70;;;13.90;;
76752;SDS011;65687;51.308;16.916;2023-01-23T02:02:58;39.50;;;17.20;;
76752;SDS011;65687;51.308;16.916;2023-01-23T02:18:30;22.30;;;12.30;;
76752;SDS011;65687;51.308;16.916;2023-01-23T02:23:54;23.70;;;13.00;;
76752;SDS011;65687;51.308;16.916;2023-01-23T02:29:17;36.50;;;14.70;;
76752;SDS011;65687;51.308;16.916;2023-01-23T02:34:20;37.20;;;17.00;;
76752;SDS011;65687;51.308;16.916;2023-01-23T02:39:23;38.30;;;16.10;;
76752;SDS011;65687;51.308;16.916;2023-01-23T02:44:29;31.20;;;14.80;;
76752;SDS011;65687;51.308;16.916;2023-01-23T02:49:32;41.90;;;18.40;;
76752;SDS011;65687;51.308;16.916;2023-01-23T02:54:34;37.80;;;16.20;;
76752;SDS011;65687;51.308;16.916;2023-01-23T02:59:36;37.10;;;16.70;;
76752;SDS011;65687;51.308;16.916;2023-01-23T03:04:56;33.40;;;14.20;;
76752;SDS011;65687;51.308;16.916;2023-01-23T03:09:58;34.30;;;15.10;;
76752;SDS011;65687;51.308;16.916;2023-01-23T03:14:59;46.10;;;18.40;;
76752;SDS011;65687;51.308;16.916;2023-01-23T03:20:02;38.60;;;17.10;;
76752;SDS011;65687;51.308;16.916;2023-01-23T03:25:06;33.50;;;15.10;;
76752;SDS011;65687;51.308;16.916;2023-01-23T03:30:12;33.70;;;14.10;;
76752;SDS011;65687;51.308;16.916;2023-01-23T03:35:16;33.00;;;13.60;;
76752;SDS011;65687;51.308;16.916;2023-01-23T03:40:23;46.20;;;17.70;;
76752;SDS011;65687;51.308;16.916;2023-01-23T03:45:43;42.60;;;18.60;;
76752;SDS011;65687;51.308;16.916;2023-01-23T03:50:45;38.90;;;17.80;;
76752;SDS011;65687;51.308;16.916;2023-01-23T03:55:47;39.70;;;17.60;;
76752;SDS011;65687;51.308;16.916;2023-01-23T04:00:49;40.90;;;16.10;;
76752;SDS011;65687;51.308;16.916;2023-01-23T04:05:55;48.10;;;20.60;;
76752;SDS011;65687;51.308;16.916;2023-01-23T04:11:04;43.60;;;17.60;;
76752;SDS011;65687;51.308;16.916;2023-01-23T04:16:07;32.20;;;14.20;;
76752;SDS011;65687;51.308;16.916;2023-01-23T04:21:09;36.80;;;15.70;;
76752;SDS011;65687;51.308;16.916;2023-01-23T04:26:11;48.00;;;17.90;;
76752;SDS011;65687;51.308;16.916;2023-01-23T04:31:12;37.70;;;17.40;;
76752;SDS011;65687;51.308;16.916;2023-01-23T04:36:15;36.50;;;15.60;;
76752;SDS011;65687;51.308;16.916;2023-01-23T04:41:22;35.70;;;15.30;;
76752;SDS011;65687;51.308;16.916;2023-01-23T04:46:25;40.70;;;16.70;;
76752;SDS011;65687;51.308;16.916;2023-01-23T04:51:27;43.60;;;18.60;;
76752;SDS011;65687;51.308;16.916;2023-01-23T04:56:28;36.50;;;15.50;;
76752;SDS011;65687;51.308;16.916;2023-01-23T05:01:30;38.90;;;17.00;;
76752;SDS011;65687;51.308;16.916;2023-01-23T05:06:32;50.30;;;18.20;;
76752;SDS011;65687;51.308;16.916;2023-01-23T05:11:33;41.60;;;17.50;;
76752;SDS011;65687;51.308;16.916;2023-01-23T05:16:35;36.60;;;17.10;;
76752;SDS011;65687;51.308;16.916;2023-01-23T05:21:37;33.10;;;13.80;;
76752;SDS011;65687;51.308;16.916;2023-01-23T05:26:39;40.30;;;16.30;;
76752;SDS011;65687;51.308;16.916;2023-01-23T05:31:40;50.50;;;18.60;;
76752;SDS011;65687;51.308;16.916;2023-01-23T05:36:42;42.50;;;16.60;;
76752;SDS011;65687;51.308;16.916;2023-01-23T05:41:43;37.70;;;15.70;;
76752;SDS011;65687;51.308;16.916;2023-01-23T05:46:45;43.40;;;17.40;;
76752;SDS011;65687;51.308;16.916;2023-01-23T05:51:47;41.10;;;16.40;;
76752;SDS011;65687;51.308;16.916;2023-01-23T05:56:48;42.40;;;17.00;;
76752;SDS011;65687;51.308;16.916;2023-01-23T06:01:50;37.80;;;15.80;;
76752;SDS011;65687;51.308;16.916;2023-01-23T06:06:52;39.40;;;16.50;;
76752;SDS011;65687;51.308;16.916;2023-01-23T06:11:53;37.20;;;17.20;;
76752;SDS011;65687;51.308;16.916;2023-01-23T06:16:55;44.80;;;17.90;;
76752;SDS011;65687;51.308;16.916;2023-01-23T06:21:57;36.00;;;15.90;;
76752;SDS011;65687;51.308;16.916;2023-01-23T06:26:58;32.90;;;14.70;;
76752;SDS011;65687;51.308;16.916;2023-01-23T06:32:00;41.50;;;16.60;;
76752;SDS011;65687;51.308;16.916;2023-01-23T06:37:02;47.10;;;18.50;;
76752;SDS011;65687;51.308;16.916;2023-01-23T06:42:04;45.40;;;17.40;;
76752;SDS011;65687;51.308;16.916;2023-01-23T06:47:10;36.50;;;17.00;;
76752;SDS011;65687;51.308;16.916;2023-01-23T06:52:14;34.80;;;15.10;;
76752;SDS011;65687;51.308;16.916;2023-01-23T06:57:15;43.40;;;16.80;;
76752;SDS011;65687;51.308;16.916;2023-01-23T07:02:17;40.90;;;15.60;;
76752;SDS011;65687;51.308;16.916;2023-01-23T07:07:19;36.40;;;15.60;;
76752;SDS011;65687;51.308;16.916;2023-01-23T07:12:20;31.50;;;13.70;;
76752;SDS011;65687;51.308;16.916;2023-01-23T07:17:25;46.90;;;18.10;;
76752;SDS011;65687;51.308;16.916;2023-01-23T07:22:29;39.20;;;17.30;;
76752;SDS011;65687;51.308;16.916;2023-01-23T07:27:33;34.40;;;15.00;;
76752;SDS011;65687;51.308;16.916;2023-01-23T07:38:02;41.00;;;16.90;;
76752;SDS011;65687;51.308;16.916;2023-01-23T07:43:10;37.20;;;16.30;;
76752;SDS011;65687;51.308;16.916;2023-01-23T07:48:36;42.00;;;16.30;;
76752;SDS011;65687;51.308;16.916;2023-01-23T07:53:40;31.50;;;14.50;;
76752;SDS011;65687;51.308;16.916;2023-01-23T07:58:47;38.70;;;16.30;;
76752;SDS011;65687;51.308;16.916;2023-01-23T08:03:51;39.10;;;15.60;;
76752;SDS011;65687;51.308;16.916;2023-01-23T08:08:55;32.50;;;14.00;;
76752;SDS011;65687;51.308;16.916;2023-01-23T08:13:57;39.00;;;18.20;;
76752;SDS011;65687;51.308;16.916;2023-01-23T08:19:06;42.10;;;18.30;;
76752;SDS011;65687;51.308;16.916;2023-01-23T08:24:12;42.00;;;16.70;;
76752;SDS011;65687;51.308;16.916;2023-01-23T08:29:18;34.40;;;15.00;;
76752;SDS011;65687;51.308;16.916;2023-01-23T08:34:21;36.50;;;15.80;;
76752;SDS011;65687;51.308;16.916;2023-01-23T08:39:27;42.00;;;17.30;;
76752;SDS011;65687;51.308;16.916;2023-01-23T08:44:34;46.30;;;18.00;;
76752;SDS011;65687;51.308;16.916;2023-01-23T08:49:35;33.00;;;13.80;;
76752;SDS011;65687;51.308;16.916;2023-01-23T08:54:37;39.40;;;17.50;;
76752;SDS011;65687;51.308;16.916;2023-01-23T08:59:39;51.30;;;20.90;;
76752;SDS011;65687;51.308;16.916;2023-01-23T09:04:42;52.40;;;18.30;;
76752;SDS011;65687;51.308;16.916;2023-01-23T09:09:44;41.20;;;15.20;;
76752;SDS011;65687;51.308;16.916;2023-01-23T09:14:46;35.50;;;14.20;;
76752;SDS011;65687;51.308;16.916;2023-01-23T09:19:48;42.50;;;16.00;;
76752;SDS011;65687;51.308;16.916;2023-01-23T09:24:49;54.90;;;19.50;;
76752;SDS011;65687;51.308;16.916;2023-01-23T09:29:51;45.60;;;18.10;;
76752;SDS011;65687;51.308;16.916;2023-01-23T09:34:52;43.50;;;16.80;;
76752;SDS011;65687;51.308;16.916;2023-01-23T09:39:55;36.30;;;15.90;;
76752;SDS011;65687;51.308;16.916;2023-01-23T09:44:59;59.00;;;19.10;;
76752;SDS011;65687;51.308;16.916;2023-01-23T09:50:12;47.10;;;17.90;;
76752;SDS011;65687;51.308;16.916;2023-01-23T09:55:21;42.60;;;16.00;;
76752;SDS011;65687;51.308;16.916;2023-01-23T10:00:32;42.60;;;15.70;;
76752;SDS011;65687;51.308;16.916;2023-01-23T10:11:04;49.10;;;16.50;;
76752;SDS011;65687;51.308;16.916;2023-01-23T10:16:39;41.50;;;17.50;;
76752;SDS011;65687;51.308;16.916;2023-01-23T10:26:54;48.40;;;19.10;;
76752;SDS011;65687;51.308;16.916;2023-01-23T10:31:58;46.10;;;15.50;;
76752;SDS011;65687;51.308;16.916;2023-01-23T10:37:32;45.30;;;17.30;;
76752;SDS011;65687;51.308;16.916;2023-01-23T10:42:49;56.30;;;19.40;;
76752;SDS011;65687;51.308;16.916;2023-01-23T10:47:51;47.80;;;16.90;;
76752;SDS011;65687;51.308;16.916;2023-01-23T10:52:52;38.00;;;14.80;;
76752;SDS011;65687;51.308;16.916;2023-01-23T10:58:07;34.30;;;12.10;;
76752;SDS011;65687;51.308;16.916;2023-01-23T11:08:39;54.00;;;19.50;;
76752;SDS011;65687;51.308;16.916;2023-01-23T11:19:26;43.90;;;17.90;;
76752;SDS011;65687;51.308;16.916;2023-01-23T11:24:36;53.90;;;19.20;;
76752;SDS011;65687;51.308;16.916;2023-01-23T11:29:52;44.80;;;17.70;;
76752;SDS011;65687;51.308;16.916;2023-01-23T11:35:10;28.20;;;11.90;;
76752;SDS011;65687;51.308;16.916;2023-01-23T11:40:15;39.40;;;15.10;;
76752;SDS011;65687;51.308;16.916;2023-01-23T11:45:37;49.00;;;17.30;;
76752;SDS011;65687;51.308;16.916;2023-01-23T11:50:59;42.90;;;16.30;;
76752;SDS011;65687;51.308;16.916;2023-01-23T12:17:43;46.70;;;19.20;;
76752;SDS011;65687;51.308;16.916;2023-01-23T12:44:14;40.50;;;16.50;;
76752;SDS011;65687;51.308;16.916;2023-01-23T12:54:39;55.60;;;18.90;;
76752;SDS011;65687;51.308;16.916;2023-01-23T13:00:05;55.20;;;20.20;;
76752;SDS011;65687;51.308;16.916;2023-01-23T13:05:32;27.10;;;10.50;;
76752;SDS011;65687;51.308;16.916;2023-01-23T13:16:13;33.90;;;12.50;;
76752;SDS011;65687;51.308;16.916;2023-01-23T13:21:19;38.20;;;14.50;;
76752;SDS011;65687;51.308;16.916;2023-01-23T13:26:39;44.00;;;16.90;;
76752;SDS011;65687;51.308;16.916;2023-01-23T13:31:42;44.10;;;17.70;;
76752;SDS011;65687;51.308;16.916;2023-01-23T13:36:50;48.90;;;17.80;;
76752;SDS011;65687;51.308;16.916;2023-01-23T13:52:46;33.20;;;12.90;;
76752;SDS011;65687;51.308;16.916;2023-01-23T13:58:11;49.80;;;18.40;;
76752;SDS011;65687;51.308;16.916;2023-01-23T14:03:21;34.80;;;11.50;;
76752;SDS011;65687;51.308;16.916;2023-01-23T14:13:53;34.10;;;13.50;;
76752;SDS011;65687;51.308;16.916;2023-01-23T14:19:24;65.20;;;23.20;;
76752;SDS011;65687;51.308;16.916;2023-01-23T14:24:38;48.40;;;20.30;;
76752;SDS011;65687;51.308;16.916;2023-01-23T14:29:54;45.10;;;20.20;;
76752;SDS011;65687;51.308;16.916;2023-01-23T14:34:58;35.10;;;14.60;;
76752;SDS011;65687;51.308;16.916;2023-01-23T14:40:00;20.20;;;8.30;;
76752;SDS011;65687;51.308;16.916;2023-01-23T14:45:02;67.50;;;21.40;;
76752;SDS011;65687;51.308;16.916;2023-01-23T14:50:07;45.00;;;18.70;;
76752;SDS011;65687;51.308;16.916;2023-01-23T14:55:20;45.20;;;18.20;;
76752;SDS011;65687;51.308;16.916;2023-01-23T15:00:24;31.20;;;13.40;;
76752;SDS011;65687;51.308;16.916;2023-01-23T15:05:26;44.60;;;18.90;;
76752;SDS011;65687;51.308;16.916;2023-01-23T15:10:30;54.60;;;22.40;;
76752;SDS011;65687;51.308;16.916;2023-01-23T15:15:36;47.40;;;17.20;;
76752;SDS011;65687;51.308;16.916;2023-01-23T15:20:39;45.90;;;17.90;;
76752;SDS011;65687;51.308;16.916;2023-01-23T15:25:41;37.10;;;18.10;;
76752;SDS011;65687;51.308;16.916;2023-01-23T15:30:44;33.90;;;16.20;;
76752;SDS011;65687;51.308;16.916;2023-01-23T15:35:48;49.80;;;17.20;;
76752;SDS011;65687;51.308;16.916;2023-01-23T15:40:50;53.30;;;20.10;;
76752;SDS011;65687;51.308;16.916;2023-01-23T15:45:51;40.20;;;17.30;;
76752;SDS011;65687;51.308;16.916;2023-01-23T15:50:54;44.20;;;15.70;;
76752;SDS011;65687;51.308;16.916;2023-01-23T15:55:55;32.00;;;14.20;;
76752;SDS011;65687;51.308;16.916;2023-01-23T16:00:57;53.90;;;21.90;;
76752;SDS011;65687;51.308;16.916;2023-01-23T16:05:58;53.50;;;19.70;;
76752;SDS011;65687;51.308;16.916;2023-01-23T16:11:00;43.90;;;17.90;;
76752;SDS011;65687;51.308;16.916;2023-01-23T16:16:02;24.30;;;10.20;;
76752;SDS011;65687;51.308;16.916;2023-01-23T16:21:04;53.70;;;21.40;;
76752;SDS011;65687;51.308;16.916;2023-01-23T16:26:10;56.80;;;21.60;;
76752;SDS011;65687;51.308;16.916;2023-01-23T16:31:20;45.70;;;17.80;;
76752;SDS011;65687;51.308;16.916;2023-01-23T16:36:22;41.30;;;15.60;;
76752;SDS011;65687;51.308;16.916;2023-01-23T16:41:24;45.10;;;18.10;;
76752;SDS011;65687;51.308;16.916;2023-01-23T16:46:25;68.10;;;24.50;;
76752;SDS011;65687;51.308;16.916;2023-01-23T16:51:27;66.30;;;23.80;;
76752;SDS011;65687;51.308;16.916;2023-01-23T16:56:31;47.10;;;21.00;;
76752;SDS011;65687;51.308;16.916;2023-01-23T17:01:38;52.20;;;20.50;;
76752;SDS011;65687;51.308;16.916;2023-01-23T17:06:42;61.80;;;22.70;;
76752;SDS011;65687;51.308;16.916;2023-01-23T17:11:45;58.40;;;23.30;;
76752;SDS011;65687;51.308;16.916;2023-01-23T17:16:50;41.10;;;16.90;;
76752;SDS011;65687;51.308;16.916;2023-01-23T17:21:53;53.80;;;20.90;;
76752;SDS011;65687;51.308;16.916;2023-01-23T17:26:56;42.50;;;18.30;;
76752;SDS011;65687;51.308;16.916;2023-01-23T17:31:58;70.00;;;25.60;;
76752;SDS011;65687;51.308;16.916;2023-01-23T17:37:00;68.50;;;25.00;;
76752;SDS011;65687;51.308;16.916;2023-01-23T17:42:01;55.80;;;21.20;;
76752;SDS011;65687;51.308;16.916;2023-01-23T17:47:03;65.10;;;24.10;;
76752;SDS011;65687;51.308;16.916;2023-01-23T17:52:05;70.10;;;25.00;;
76752;SDS011;65687;51.308;16.916;2023-01-23T17:57:07;77.70;;;27.30;;
76752;SDS011;65687;51.308;16.916;2023-01-23T18:02:13;64.30;;;24.10;;
76752;SDS011;65687;51.308;16.916;2023-01-23T18:07:23;57.30;;;22.90;;
76752;SDS011;65687;51.308;16.916;2023-01-23T18:12:27;60.30;;;23.00;;
76752;SDS011;65687;51.308;16.916;2023-01-23T18:17:50;75.60;;;27.50;;
76752;SDS011;65687;51.308;16.916;2023-01-23T18:22:55;72.20;;;25.50;;
76752;SDS011;65687;51.308;16.916;2023-01-23T18:27:59;70.40;;;23.70;;
76752;SDS011;65687;51.308;16.916;2023-01-23T18:38:33;70.40;;;25.40;;
76752;SDS011;65687;51.308;16.916;2023-01-23T18:43:38;58.70;;;23.90;;
76752;SDS011;65687;51.308;16.916;2023-01-23T18:48:45;55.70;;;22.30;;
76752;SDS011;65687;51.308;16.916;2023-01-23T18:59:28;46.20;;;18.50;;
76752;SDS011;65687;51.308;16.916;2023-01-23T19:10:15;59.10;;;24.90;;
76752;SDS011;65687;51.308;16.916;2023-01-23T19:15:24;58.90;;;22.90;;
76752;SDS011;65687;51.308;16.916;2023-01-23T19:25:57;47.30;;;19.40;;
76752;SDS011;65687;51.308;16.916;2023-01-23T19:30:59;68.70;;;26.00;;
76752;SDS011;65687;51.308;16.916;2023-01-23T19:36:01;69.90;;;24.50;;
76752;SDS011;65687;51.308;16.916;2023-01-23T19:41:02;56.30;;;21.60;;
76752;SDS011;65687;51.308;16.916;2023-01-23T19:46:07;61.80;;;22.30;;
76752;SDS011;65687;51.308;16.916;2023-01-23T19:51:10;45.70;;;20.40;;
76752;SDS011;65687;51.308;16.916;2023-01-23T19:56:15;72.20;;;24.90;;
76752;SDS011;65687;51.308;16.916;2023-01-23T20:06:33;61.10;;;22.10;;
76752;SDS011;65687;51.308;16.916;2023-01-23T20:11:41;65.50;;;23.10;;
76752;SDS011;65687;51.308;16.916;2023-01-23T20:16:44;73.50;;;24.30;;
76752;SDS011;65687;51.308;16.916;2023-01-23T20:21:46;69.10;;;23.00;;
76752;SDS011;65687;51.308;16.916;2023-01-23T20:26:48;64.70;;;24.80;;
76752;SDS011;65687;51.308;16.916;2023-01-23T20:31:49;62.50;;;22.00;;
76752;SDS011;65687;51.308;16.916;2023-01-23T20:36:53;71.80;;;26.10;;
76752;SDS011;65687;51.308;16.916;2023-01-23T20:41:55;68.10;;;24.90;;
76752;SDS011;65687;51.308;16.916;2023-01-23T20:46:56;61.60;;;22.70;;
76752;SDS011;65687;51.308;16.916;2023-01-23T20:51:58;61.00;;;21.90;;
76752;SDS011;65687;51.308;16.916;2023-01-23T20:57:19;53.80;;;19.20;;
76752;SDS011;65687;51.308;16.916;2023-01-23T21:02:21;86.80;;;30.60;;
76752;SDS011;65687;51.308;16.916;2023-01-23T21:07:25;77.80;;;26.30;;
76752;SDS011;65687;51.308;16.916;2023-01-23T21:12:28;70.10;;;24.00;;
76752;SDS011;65687;51.308;16.916;2023-01-23T21:17:30;67.10;;;23.60;;
76752;SDS011;65687;51.308;16.916;2023-01-23T21:22:31;60.20;;;22.80;;
76752;SDS011;65687;51.308;16.916;2023-01-23T21:27:33;78.40;;;27.10;;
76752;SDS011;65687;51.308;16.916;2023-01-23T21:32:34;81.30;;;31.20;;
76752;SDS011;65687;51.308;16.916;2023-01-23T21:37:36;62.10;;;23.50;;
76752;SDS011;65687;51.308;16.916;2023-01-23T21:42:38;67.20;;;24.50;;
76752;SDS011;65687;51.308;16.916;2023-01-23T21:47:39;73.00;;;25.80;;
76752;SDS011;65687;51.308;16.916;2023-01-23T21:52:41;71.90;;;26.90;;
76752;SDS011;65687;51.308;16.916;2023-01-23T21:57:42;68.90;;;25.70;;
76752;SDS011;65687;51.308;16.916;2023-01-23T22:02:44;61.80;;;23.80;;
76752;SDS011;65687;51.308;16.916;2023-01-23T22:07:46;73.00;;;21.70;;
76752;SDS011;65687;51.308;16.916;2023-01-23T22:12:48;70.80;;;26.30;;
76752;SDS011;65687;51.308;16.916;2023-01-23T22:17:50;27.50;;;11.40;;
76752;SDS011;65687;51.308;16.916;2023-01-23T22:22:51;51.30;;;20.60;;
76752;SDS011;65687;51.308;16.916;2023-01-23T22:27:53;61.90;;;20.40;;
76752;SDS011;65687;51.308;16.916;2023-01-23T22:32:54;65.10;;;22.30;;
76752;SDS011;65687;51.308;16.916;2023-01-23T22:37:56;60.40;;;22.80;;
76752;SDS011;65687;51.308;16.916;2023-01-23T22:42:57;57.60;;;22.50;;
76752;SDS011;65687;51.308;16.916;2023-01-23T22:47:59;30.50;;;12.10;;
76752;SDS011;65687;51.308;16.916;2023-01-23T22:53:01;17.90;;;7.20;;
76752;SDS011;65687;51.308;16.916;2023-01-23T22:58:02;66.20;;;24.70;;
76752;SDS011;65687;51.308;16.916;2023-01-23T23:03:04;67.60;;;25.80;;
76752;SDS011;65687;51.308;16.916;2023-01-23T23:08:05;59.90;;;20.60;;
76752;SDS011;65687;51.308;16.916;2023-01-23T23:13:07;54.40;;;20.10;;
76752;SDS011;65687;51.308;16.916;2023-01-23T23:18:08;46.20;;;18.80;;
76752;SDS011;65687;51.308;16.916;2023-01-23T23:23:10;46.50;;;21.30;;
76752;SDS011;65687;51.308;16.916;2023-01-23T23:28:11;69.70;;;27.30;;
76752;SDS011;65687;51.308;16.916;2023-01-23T23:33:13;68.40;;;24.70;;
76752;SDS011;65687;51.308;16.916;2023-01-23T23:38:15;56.10;;;23.70;;
76752;SDS011;65687;51.308;16.916;2023-01-23T23:43:16;56.00;;;22.40;;
76752;SDS011;65687;51.308;16.916;2023-01-23T23:48:18;56.60;;;21.20;;
76752;SDS011;65687;51.308;16.916;2023-01-23T23:53:20;79.50;;;29.30;;
76752;SDS011;65687;51.308;16.916;2023-01-23T23:58:22;69.80;;;25.90;;
